Latest METARs, TAFs and NOTAMs for MGGT


---------------------------------------------------------------------------
	(OBSERVATIONS)
MGGT 212200Z 02008KT 9999 BKN020 FEW025CB 24/12 Q1024 A3024 CB
    SSE=
MGGT 212100Z 02008KT 9999 BKN020 25/12 Q1025 A3027=
MGGT 212000Z 04010KT 9999 SCT020 26/13 Q1025 A3027=
---------------------------------------------------------------------------
	(TERMINAL AREA FORECAST)
MGGT 211700Z 2118/2218 18008KT 9999 FEW018 SCT090 TX26/2120Z
    TN16/2212Z
    TEMPO 2118/2201 16012KT 8000 SCT020TCU
    BECMG 2201/2203 8000 SCT016
    TEMPO 2206/2215 5000 BR BKN012
    BECMG 2215/2217 SCT018=
---------------------------------------------------------------------------
	(NOTAMS)


MGGT A0047/18 THE FOLLOWING INT ARE COMPLETELY WITHDRAWN EXER
    CTN DUE TO MEN AND EQPT WORKING ON CLSD INT ACFT REQ ATC
    INSTRUCTIONS TWY E: INT F1, H, I TWY W: INT N. 11 JAN 04:00
    2018 UNTIL PERM. CREATED: 08 JAN 19:16 2018

MGGT A0087/18 ALS RWY 02 OPR PARTIALLY. 15 JAN 21:00 2018 UNTIL
    15 APR 23:59 2018. CREATED: 15 JAN 19:07 2018

MGGT A0272/18 ILS CAT I ID IAAI FREQ 110.1MHZ RWY 02 ON TRIAL
    MODE PILOT REPORT EXPECTED AFTER LDG FREQ 121.9MHZ. 08 FEB
    16:00 2018 UNTIL 08 MAR 23:59 2018. CREATED: 08 FEB 00:40
    2018

MGGT A0337/18 TWY E INT J TO HOLDING POINT RWY 02 CLSD DUE TO
    MEN AND EQPT WORKING REQ ATC INSTRUCTIONS. 15 FEB 00:01 2018
    UNTIL 14 MAR 23:59 2018. CREATED: 14 FEB 22:54 2018

MGGT A2207/17 RNAV X RWY 02 PROCEDURE NOT AVBL RNAV W RWY 02
    PROCEDURE NOT AVBL RNAV X RWY 20 PROCEDURE GT599 NOT AVBL.
    24 NOV 13:15 2017 UNTIL 24 FEB 13:15 2018. CREATED: 24 NOV
    13:17 2017

MGGT A2245/17 RWY 02/20 END ID LIGHTS U/S DUE TO MAINT. 28 NOV
    17:03 2017 UNTIL 28 FEB 16:55 2018. CREATED: 28 NOV 17:10
    2017

MGGT F0011/08 [DEFENSE ENERGY SUPPORT CENTER ADVISORY] FUEL AVAILABILITY
    LIMITED BEGINNING MAY 3, 2008 DAILY VOLUME WILL BE REDUCED
    FOR GOVERNMENT CONTRACT FUEL (SP0600-05-D-0003). CALL AHEAD
    TO ENURE FUEL AVAILABILITY. STAFF DUTY OFFICER #DSN 427-8420.
    05 AUG 01:17 2020 UNTIL 05 AUG 30:17 2020

MGGT F0014/08 [DEFENSE ENERGY SUPPORT CENTER ADVISORY] FUEL AVAILABILITY
    LIMITED QUANTITY UNTIL FURTHER NOTICE. PHONE AHEAD FOR FUEL
    AVAILABILITY. 05 AUG 08:12 2020 UNTIL 06 AUG 10:12 2020

MGGT F0044/11 [DEFENSE ENERGY SUPPORT CENTER ADVISORY] FUEL AVAILABILITY
    HOURS OF SERVICE ARE NEW FUELING HOURS FROM 09:00 AM TO 4:00
    PM. ALL FUELINGS OUTSIDE THIS SCHEDULE, WILL BE PROVIDED
    AT THE SOUTH INTERNATIONAL RAMP SO THAT ANY PERMISSION MUST
    BE OBTAINED FROM DGAC (DIRECCION GENERAL DE AERONAUTICA CIVIL),
    BY ALL CUSTOMERS IN CASE IT IS NECESSARY. DLA ENERGY DUTY
    OFFICER'S TELEPHONE NUMBER IS 703-767-8420, DSN 427-8420.
    06 NOV 14:14 2020 UNTIL 08 NOV 30:14 2020

---------------------------------------------------------------------------